Time;durP1;ratioP1;P1;durP2;ratioP2;P2;SDS_P1;SDS_P2;PMS_P1;PMS_P2;Temp;Humidity;BMP_temperature;BMP_pressure;BME280_temperature;BME280_humidity;BME280_pressure;Samples;Min_cycle;Max_cycle;Signal;HPM_P1;HPM_P2
2022/10/11 00:01:34;;;;;;;7.55;2.97;;;;;;;;;;5018520;28;20775;-73
2022/10/11 00:04:00;;;;;;;6.65;2.97;;;;;;;;;;5030926;28;20027;-73
2022/10/11 00:06:25;;;;;;;10.23;3.38;;;;;;;;;;5032105;28;20862;-73
2022/10/11 00:08:50;;;;;;;10.77;2.75;;;;;;;;;;5073716;28;20074;-74
2022/10/11 00:11:15;;;;;;;7.88;3.35;;;;;;;;;;5064174;28;20027;-75
2022/10/11 00:13:41;;;;;;;11.25;3.22;;;;;;;;;;5068351;28;20063;-75
2022/10/11 00:16:07;;;;;;;9.83;2.80;;;;;;;;;;5073624;28;20479;-75
2022/10/11 00:18:32;;;;;;;7.88;2.80;;;;;;;;;;5052819;28;20295;-74
2022/10/11 00:21:04;;;;;;;9.90;3.43;;;;;;;;;;5053323;28;20044;-74
2022/10/11 00:23:30;;;;;;;12.35;3.83;;;;;;;;;;5048061;28;20271;-74
2022/10/11 00:25:59;;;;;;;13.77;3.30;;;;;;;;;;5075549;28;20013;-74
2022/10/11 00:28:24;;;;;;;9.82;3.50;;;;;;;;;;5071407;28;20020;-74
2022/10/11 00:30:49;;;;;;;13.85;3.63;;;;;;;;;;5050622;28;20016;-74
2022/10/11 00:33:14;;;;;;;12.77;3.10;;;;;;;;;;5032675;28;20552;-74
2022/10/11 00:35:40;;;;;;;11.13;3.15;;;;;;;;;;5053552;28;20094;-74
2022/10/11 00:38:05;;;;;;;13.25;2.75;;;;;;;;;;5072243;28;20091;-74
2022/10/11 00:40:31;;;;;;;14.02;4.18;;;;;;;;;;5057113;28;20023;-74
2022/10/11 00:42:56;;;;;;;8.55;3.13;;;;;;;;;;5075411;28;20031;-74
2022/10/11 00:45:30;;;;;;;8.23;3.33;;;;;;;;;;5052907;28;20029;-74
2022/10/11 00:47:55;;;;;;;;;;;;;;;;;;5054277;28;20358;-74
2022/10/11 00:50:21;;;;;;;12.52;3.42;;;;;;;;;;5086893;28;20286;-74
2022/10/11 00:52:51;;;;;;;9.88;3.55;;;;;;;;;;5071574;28;20069;-74
2022/10/11 00:55:19;;;;;;;9.65;3.55;;;;;;;;;;5072119;28;20020;-75
2022/10/11 00:57:46;;;;;;;9.65;2.95;;;;;;;;;;5084652;28;20475;-76
2022/10/11 01:00:13;;;;;;;23.45;3.90;;;;;;;;;;5053861;28;20048;-73
2022/10/11 01:02:39;;;;;;;10.15;3.45;;;;;;;;;;5027560;28;20025;-72
2022/10/11 01:05:05;;;;;;;5.68;2.65;;;;;;;;;;5040828;28;20051;-72
2022/10/11 01:07:31;;;;;;;11.10;3.50;;;;;;;;;;5053496;28;20463;-72
2022/10/11 01:09:59;;;;;;;9.60;3.75;;;;;;;;;;5053268;28;20028;-73
2022/10/11 01:12:27;;;;;;;11.43;2.65;;;;;;;;;;5045164;28;20048;-72
2022/10/11 01:15:11;;;;;;;12.75;3.33;;;;;;;;;;5071146;28;20374;-72
2022/10/11 01:17:46;;;;;;;7.78;3.60;;;;;;;;;;5071293;28;20013;-72
2022/10/11 01:20:11;;;;;;;6.85;3.33;;;;;;;;;;5071296;28;20021;-73
2022/10/11 01:22:45;;;;;;;7.57;2.70;;;;;;;;;;5070737;28;20024;-73
2022/10/11 01:25:17;;;;;;;10.43;3.00;;;;;;;;;;5053641;28;20286;-73
2022/10/11 01:27:48;;;;;;;10.13;4.38;;;;;;;;;;5071251;28;20029;-73
2022/10/11 01:30:32;;;;;;;10.95;3.30;;;;;;;;;;5069659;28;20020;-73
2022/10/11 01:33:03;;;;;;;7.47;3.30;;;;;;;;;;5054714;28;20020;-73
2022/10/11 01:35:37;;;;;;;6.97;3.13;;;;;;;;;;5083226;28;20021;-75
2022/10/11 01:38:10;;;;;;;7.50;3.25;;;;;;;;;;5069655;28;20056;-75
2022/10/11 01:40:41;;;;;;;6.75;3.05;;;;;;;;;;5073984;28;20035;-75
2022/10/11 01:43:08;;;;;;;5.80;3.25;;;;;;;;;;5074493;28;20047;-75
2022/10/11 01:45:33;;;;;;;10.85;4.07;;;;;;;;;;5056722;28;20021;-75
2022/10/11 01:48:06;;;;;;;11.07;3.95;;;;;;;;;;5073399;28;20028;-75
2022/10/11 01:50:37;;;;;;;9.70;3.80;;;;;;;;;;5069776;28;20023;-75
2022/10/11 01:53:22;;;;;;;13.63;4.30;;;;;;;;;;5074408;28;20050;-75
2022/10/11 01:55:54;;;;;;;16.17;4.68;;;;;;;;;;5046678;28;20021;-75
2022/10/11 01:58:29;;;;;;;11.50;4.15;;;;;;;;;;5054872;28;20359;-73
2022/10/11 02:01:00;;;;;;;14.30;4.63;;;;;;;;;;5068305;28;20097;-72
2022/10/11 02:03:37;;;;;;;13.27;4.18;;;;;;;;;;5056432;28;20028;-72
2022/10/11 02:06:07;;;;;;;9.98;4.72;;;;;;;;;;5074685;28;20024;-72
2022/10/11 02:08:33;;;;;;;16.25;4.20;;;;;;;;;;5073674;28;20498;-73
2022/10/11 02:11:05;;;;;;;13.83;4.60;;;;;;;;;;5053315;28;20048;-72
2022/10/11 02:13:36;;;;;;;14.88;4.65;;;;;;;;;;5075609;28;20768;-73
2022/10/11 02:16:05;;;;;;;12.88;4.82;;;;;;;;;;5074218;28;20023;-73
2022/10/11 02:18:35;;;;;;;10.25;4.72;;;;;;;;;;5056129;28;20020;-73
2022/10/11 02:21:02;;;;;;;9.07;4.43;;;;;;;;;;5056267;28;20032;-73
2022/10/11 02:23:33;;;;;;;11.35;4.65;;;;;;;;;;5074256;28;20035;-73
2022/10/11 02:25:59;;;;;;;13.60;4.80;;;;;;;;;;5073914;28;20097;-75
2022/10/11 02:28:28;;;;;;;13.82;4.43;;;;;;;;;;5089799;28;20056;-75
2022/10/11 02:30:55;;;;;;;12.07;5.05;;;;;;;;;;5073168;28;20145;-75
2022/10/11 02:33:24;;;;;;;7.53;4.25;;;;;;;;;;5073834;28;20032;-75
2022/10/11 02:35:53;;;;;;;8.35;4.53;;;;;;;;;;5041483;28;20029;-75
2022/10/11 02:38:31;;;;;;;9.45;5.00;;;;;;;;;;5074099;28;20028;-76
2022/10/11 02:40:59;;;;;;;8.07;5.20;;;;;;;;;;5073771;28;20031;-75
2022/10/11 02:43:29;;;;;;;13.75;6.30;;;;;;;;;;5052811;28;20028;-75
2022/10/11 02:46:01;;;;;;;10.60;5.22;;;;;;;;;;5066674;28;20073;-75
2022/10/11 02:48:28;;;;;;;12.15;5.28;;;;;;;;;;5064757;28;20033;-75
2022/10/11 02:50:54;;;;;;;14.30;5.88;;;;;;;;;;5063159;28;20019;-75
2022/10/11 02:53:20;;;;;;;14.73;6.20;;;;;;;;;;5055394;28;20032;-75
2022/10/11 02:55:46;;;;;;;14.98;6.85;;;;;;;;;;5055549;28;20103;-75
2022/10/11 02:58:11;;;;;;;18.70;7.60;;;;;;;;;;5047963;28;20013;-75
2022/10/11 03:00:36;;;;;;;19.30;9.25;;;;;;;;;;5072814;28;20452;-75
2022/10/11 03:03:01;;;;;;;18.92;10.40;;;;;;;;;;5055925;28;20098;-75
2022/10/11 03:05:27;;;;;;;11.93;8.35;;;;;;;;;;5052969;28;20081;-75
2022/10/11 03:07:52;;;;;;;12.20;8.70;;;;;;;;;;5053996;28;20032;-75
2022/10/11 03:10:17;;;;;;;18.05;8.90;;;;;;;;;;5072620;28;20037;-74
2022/10/11 03:12:42;;;;;;;14.73;7.65;;;;;;;;;;5053587;28;20025;-75
2022/10/11 03:15:08;;;;;;;13.33;8.47;;;;;;;;;;5052824;28;20051;-75
2022/10/11 03:17:33;;;;;;;20.48;8.77;;;;;;;;;;5088903;28;20295;-75
2022/10/11 03:19:58;;;;;;;14.10;7.15;;;;;;;;;;5051296;28;20025;-75
2022/10/11 03:22:23;;;;;;;14.55;7.18;;;;;;;;;;5072817;28;20020;-75
2022/10/11 03:24:49;;;;;;;13.80;8.88;;;;;;;;;;5067472;28;20022;-75
2022/10/11 03:27:14;;;;;;;24.17;10.45;;;;;;;;;;5054411;28;20036;-75
2022/10/11 03:29:39;;;;;;;22.60;8.87;;;;;;;;;;5058946;28;20394;-74
2022/10/11 03:32:04;;;;;;;16.27;10.25;;;;;;;;;;5054984;28;20772;-74
2022/10/11 03:34:30;;;;;;;23.38;9.35;;;;;;;;;;5071243;28;20370;-74
2022/10/11 03:36:55;;;;;;;20.30;9.23;;;;;;;;;;5069461;28;20032;-74
2022/10/11 03:39:20;;;;;;;18.00;10.43;;;;;;;;;;5055427;28;20099;-74
2022/10/11 03:41:45;;;;;;;14.93;9.82;;;;;;;;;;5059201;28;20116;-74
2022/10/11 03:44:11;;;;;;;15.17;10.10;;;;;;;;;;5072283;28;20028;-73
2022/10/11 03:46:36;;;;;;;24.55;10.73;;;;;;;;;;5071457;28;20332;-73
2022/10/11 03:49:01;;;;;;;18.17;13.15;;;;;;;;;;5053489;28;20028;-73
2022/10/11 03:51:26;;;;;;;19.60;11.55;;;;;;;;;;5071610;28;20092;-73
2022/10/11 03:53:52;;;;;;;13.33;9.30;;;;;;;;;;5070891;28;20028;-73
2022/10/11 03:56:17;;;;;;;17.52;10.77;;;;;;;;;;5071511;28;20279;-73
2022/10/11 03:58:42;;;;;;;19.55;10.73;;;;;;;;;;5071667;28;20052;-73
2022/10/11 04:01:07;;;;;;;17.15;9.68;;;;;;;;;;5053500;28;20047;-74
2022/10/11 04:03:33;;;;;;;19.40;9.57;;;;;;;;;;5072211;28;20464;-73
2022/10/11 04:05:58;;;;;;;21.63;9.23;;;;;;;;;;5082839;28;20040;-73
2022/10/11 04:08:23;;;;;;;15.35;9.60;;;;;;;;;;5088559;28;20378;-74
2022/10/11 04:10:49;;;;;;;13.63;9.32;;;;;;;;;;5077346;28;20024;-74
2022/10/11 04:13:14;;;;;;;16.23;10.15;;;;;;;;;;5054088;28;20478;-75
2022/10/11 04:15:40;;;;;;;20.27;10.00;;;;;;;;;;5050923;28;20024;-75
2022/10/11 04:18:06;;;;;;;19.75;10.35;;;;;;;;;;5069548;28;20021;-73
2022/10/11 04:20:31;;;;;;;18.90;9.57;;;;;;;;;;5055707;28;20020;-73
2022/10/11 04:22:56;;;;;;;24.13;11.48;;;;;;;;;;5052095;28;20146;-73
2022/10/11 04:25:22;;;;;;;19.70;11.73;;;;;;;;;;5071446;28;20063;-73
2022/10/11 04:27:47;;;;;;;17.23;10.30;;;;;;;;;;5070778;28;20059;-73
2022/10/11 04:30:13;;;;;;;16.63;10.77;;;;;;;;;;5072862;28;20487;-73
2022/10/11 04:32:38;;;;;;;18.63;11.27;;;;;;;;;;5055787;28;20502;-73
2022/10/11 04:35:03;;;;;;;16.70;10.15;;;;;;;;;;5075353;28;20048;-75
2022/10/11 04:37:29;;;;;;;15.07;10.30;;;;;;;;;;5077206;28;20037;-75
2022/10/11 04:39:54;;;;;;;18.48;10.70;;;;;;;;;;5053645;28;20165;-75
2022/10/11 04:42:19;;;;;;;22.02;11.02;;;;;;;;;;5054336;28;20032;-75
2022/10/11 04:44:45;;;;;;;13.43;9.52;;;;;;;;;;5053190;28;20031;-74
2022/10/11 04:47:10;;;;;;;15.85;10.57;;;;;;;;;;5069163;28;20040;-75
2022/10/11 04:49:35;;;;;;;16.48;11.00;;;;;;;;;;5053863;28;20114;-75
2022/10/11 04:52:01;;;;;;;17.77;10.75;;;;;;;;;;5071754;28;20016;-75
2022/10/11 04:54:26;;;;;;;19.17;11.23;;;;;;;;;;5053980;28;20025;-76
2022/10/11 04:56:51;;;;;;;16.95;10.23;;;;;;;;;;5071098;28;20012;-75
2022/10/11 04:59:16;;;;;;;18.50;11.35;;;;;;;;;;5053803;28;20459;-75
2022/10/11 05:01:41;;;;;;;21.25;10.30;;;;;;;;;;5053607;28;20516;-76
2022/10/11 05:04:07;;;;;;;16.33;10.40;;;;;;;;;;5059779;28;20505;-75
2022/10/11 05:06:32;;;;;;;15.38;11.02;;;;;;;;;;5059844;28;20317;-76
2022/10/11 05:08:57;;;;;;;13.98;9.90;;;;;;;;;;5057752;28;20020;-75
2022/10/11 05:11:22;;;;;;;17.10;11.02;;;;;;;;;;5015112;28;20021;-76
2022/10/11 05:13:48;;;;;;;12.88;9.35;;;;;;;;;;5004397;28;20013;-76
2022/10/11 05:16:13;;;;;;;15.45;10.00;;;;;;;;;;5013457;28;20020;-73
2022/10/11 05:18:39;;;;;;;14.75;9.88;;;;;;;;;;5012377;28;20027;-72
2022/10/11 05:21:06;;;;;;;19.35;8.98;;;;;;;;;;5015883;28;20116;-73
2022/10/11 05:23:32;;;;;;;17.92;10.20;;;;;;;;;;5048020;28;20783;-73
2022/10/11 05:25:57;;;;;;;18.45;10.43;;;;;;;;;;5035817;28;20066;-72
2022/10/11 05:28:22;;;;;;;20.10;10.70;;;;;;;;;;5015230;28;20896;-76
2022/10/11 05:30:48;;;;;;;17.38;10.40;;;;;;;;;;5030990;28;20025;-73
2022/10/11 05:33:13;;;;;;;18.90;10.80;;;;;;;;;;5016594;28;20031;-72
2022/10/11 05:35:38;;;;;;;15.82;10.57;;;;;;;;;;5014073;28;20975;-73
2022/10/11 05:38:04;;;;;;;17.10;10.38;;;;;;;;;;5029741;28;20059;-72
2022/10/11 05:40:29;;;;;;;16.10;10.05;;;;;;;;;;5031152;28;20126;-72
2022/10/11 05:42:54;;;;;;;20.13;11.27;;;;;;;;;;5014189;28;20089;-72
2022/10/11 05:45:19;;;;;;;22.50;10.55;;;;;;;;;;5013313;28;20063;-71
2022/10/11 05:47:44;;;;;;;15.70;10.52;;;;;;;;;;5015397;28;20029;-79
2022/10/11 05:50:10;;;;;;;18.65;10.95;;;;;;;;;;5013517;28;20039;-71
2022/10/11 05:52:35;;;;;;;17.83;11.15;;;;;;;;;;5033265;28;20013;-72
2022/10/11 05:55:02;;;;;;;22.65;12.20;;;;;;;;;;5015937;28;20019;-72
2022/10/11 05:57:27;;;;;;;16.65;10.85;;;;;;;;;;5031693;28;20012;-72
2022/10/11 05:59:52;;;;;;;13.15;10.65;;;;;;;;;;5034048;28;20807;-72
2022/10/11 06:02:18;;;;;;;21.52;11.68;;;;;;;;;;5012462;28;20016;-71
2022/10/11 06:04:43;;;;;;;24.42;13.95;;;;;;;;;;5036107;28;20017;-71
2022/10/11 06:07:08;;;;;;;30.30;14.30;;;;;;;;;;5031533;28;20561;-71
2022/10/11 06:09:33;;;;;;;25.65;12.93;;;;;;;;;;5033383;28;20773;-71
2022/10/11 06:11:59;;;;;;;18.20;11.68;;;;;;;;;;5031365;28;20081;-71
2022/10/11 06:14:25;;;;;;;30.67;13.60;;;;;;;;;;5032911;28;20794;-74
2022/10/11 06:16:50;;;;;;;25.30;13.23;;;;;;;;;;5022458;28;20082;-72
2022/10/11 06:19:15;;;;;;;23.50;13.63;;;;;;;;;;5017063;28;20012;-71
2022/10/11 06:21:40;;;;;;;20.48;11.75;;;;;;;;;;5049047;28;20866;-72
2022/10/11 06:24:06;;;;;;;18.33;12.10;;;;;;;;;;5030063;28;20845;-71
2022/10/11 06:26:31;;;;;;;25.48;11.93;;;;;;;;;;5017649;28;20020;-71
2022/10/11 06:28:57;;;;;;;18.48;11.25;;;;;;;;;;5014552;28;20019;-75
2022/10/11 06:31:22;;;;;;;19.08;11.68;;;;;;;;;;5015912;28;20029;-69
2022/10/11 06:33:48;;;;;;;22.30;12.82;;;;;;;;;;5031093;28;20025;-72
2022/10/11 06:36:13;;;;;;;18.20;11.57;;;;;;;;;;5012364;28;20122;-72
2022/10/11 06:38:39;;;;;;;13.77;10.60;;;;;;;;;;5014202;28;20016;-71
2022/10/11 06:41:23;;;;;;;15.35;11.35;;;;;;;;;;5031025;28;20024;-69
2022/10/11 06:43:49;;;;;;;20.00;12.15;;;;;;;;;;5030114;28;20040;-72
2022/10/11 06:46:17;;;;;;;17.55;11.63;;;;;;;;;;5013609;28;20083;-75
2022/10/11 06:48:43;;;;;;;12.85;10.07;;;;;;;;;;5010341;28;20027;-75
2022/10/11 06:51:12;;;;;;;18.35;11.48;;;;;;;;;;5005985;28;20032;-75
2022/10/11 06:53:38;;;;;;;19.17;12.15;;;;;;;;;;5013891;28;20016;-75
2022/10/11 06:56:04;;;;;;;19.98;14.73;;;;;;;;;;5011947;28;20131;-77
2022/10/11 06:58:29;;;;;;;20.40;15.15;;;;;;;;;;5014233;28;20040;-75
2022/10/11 07:00:58;;;;;;;17.92;12.43;;;;;;;;;;5012680;28;20132;-74
2022/10/11 07:03:23;;;;;;;26.10;13.82;;;;;;;;;;5045214;28;20016;-75
2022/10/11 07:05:48;;;;;;;19.73;14.18;;;;;;;;;;5013870;28;20110;-74
2022/10/11 07:08:14;;;;;;;18.02;14.43;;;;;;;;;;5030376;28;20866;-75
2022/10/11 07:10:39;;;;;;;20.35;14.68;;;;;;;;;;5012234;28;20135;-75
2022/10/11 07:13:04;;;;;;;27.50;17.05;;;;;;;;;;5013012;28;21010;-74
2022/10/11 07:15:30;;;;;;;39.20;16.25;;;;;;;;;;5011747;28;20028;-75
2022/10/11 07:17:55;;;;;;;23.23;15.60;;;;;;;;;;5013603;28;20225;-75
2022/10/11 07:20:20;;;;;;;17.27;14.45;;;;;;;;;;5012697;28;20051;-74
2022/10/11 07:22:45;;;;;;;25.33;15.77;;;;;;;;;;5012946;28;20020;-76
2022/10/11 07:25:11;;;;;;;25.27;15.27;;;;;;;;;;5045053;28;20085;-75
2022/10/11 07:27:36;;;;;;;22.20;17.15;;;;;;;;;;5016522;28;20893;-75
2022/10/11 07:30:02;;;;;;;19.65;15.98;;;;;;;;;;5011046;28;20128;-75
2022/10/11 07:32:27;;;;;;;19.27;15.50;;;;;;;;;;5033135;28;20173;-75
2022/10/11 07:34:52;;;;;;;24.13;17.27;;;;;;;;;;5016472;28;20020;-75
2022/10/11 07:37:17;;;;;;;24.83;17.67;;;;;;;;;;5016514;28;20028;-75
2022/10/11 07:39:43;;;;;;;18.67;16.15;;;;;;;;;;5029486;28;20032;-75
2022/10/11 07:42:08;;;;;;;21.92;17.30;;;;;;;;;;5014525;28;20413;-75
2022/10/11 07:44:35;;;;;;;23.23;17.90;;;;;;;;;;5013099;28;20022;-75
2022/10/11 07:47:00;;;;;;;24.58;18.65;;;;;;;;;;5010575;28;20852;-75
2022/10/11 07:49:25;;;;;;;25.15;20.02;;;;;;;;;;5012261;28;20024;-75
2022/10/11 07:51:50;;;;;;;22.73;19.52;;;;;;;;;;5011693;28;20902;-75
2022/10/11 07:54:16;;;;;;;24.63;20.60;;;;;;;;;;5012935;28;20016;-76
2022/10/11 07:56:41;;;;;;;28.17;20.50;;;;;;;;;;5031431;28;20024;-75
2022/10/11 07:59:07;;;;;;;27.45;20.88;;;;;;;;;;5012743;28;20271;-75
2022/10/11 08:01:32;;;;;;;27.80;21.05;;;;;;;;;;5008867;28;20139;-75
2022/10/11 08:03:57;;;;;;;30.20;19.55;;;;;;;;;;5038428;28;20020;-76
2022/10/11 08:06:26;;;;;;;26.83;17.25;;;;;;;;;;5033491;28;20016;-75
2022/10/11 08:08:51;;;;;;;21.80;16.77;;;;;;;;;;5015304;28;20735;-75
2022/10/11 08:11:27;;;;;;;22.67;17.02;;;;;;;;;;5014015;28;20012;-75
2022/10/11 08:13:53;;;;;;;20.58;16.50;;;;;;;;;;5016753;28;20031;-75
2022/10/11 08:16:18;;;;;;;17.33;15.15;;;;;;;;;;5012971;28;20116;-75
2022/10/11 08:18:44;;;;;;;19.83;15.20;;;;;;;;;;5009858;28;20021;-74
2022/10/11 08:21:10;;;;;;;20.15;15.82;;;;;;;;;;5032424;28;20028;-75
2022/10/11 08:23:36;;;;;;;24.95;15.93;;;;;;;;;;5011538;28;20027;-74
2022/10/11 08:26:01;;;;;;;24.65;17.85;;;;;;;;;;5012396;28;20020;-77
2022/10/11 08:28:27;;;;;;;28.05;18.17;;;;;;;;;;5000045;28;20098;-77
2022/10/11 08:30:53;;;;;;;23.50;18.55;;;;;;;;;;5044744;28;20017;-77
2022/10/11 08:33:19;;;;;;;31.08;17.77;;;;;;;;;;5011845;28;20106;-77
2022/10/11 08:35:45;;;;;;;28.10;16.77;;;;;;;;;;5011861;28;20025;-78
2022/10/11 08:38:10;;;;;;;21.25;15.35;;;;;;;;;;5013292;28;20028;-77
2022/10/11 08:40:36;;;;;;;30.25;15.50;;;;;;;;;;5010729;28;20016;-77
2022/10/11 08:43:14;;;;;;;25.52;13.70;;;;;;;;;;5012893;28;20862;-77
2022/10/11 08:45:47;;;;;;;18.05;11.68;;;;;;;;;;5015231;28;20020;-78
2022/10/11 08:48:15;;;;;;;15.40;11.13;;;;;;;;;;5045954;28;20047;-75
2022/10/11 08:50:42;;;;;;;24.42;12.07;;;;;;;;;;5026003;28;20052;-75
2022/10/11 08:53:21;;;;;;;21.20;9.30;;;;;;;;;;5043225;28;20059;-78
2022/10/11 08:55:49;;;;;;;24.38;8.73;;;;;;;;;;5015984;28;20123;-75
2022/10/11 08:58:16;;;;;;;28.35;7.72;;;;;;;;;;5015099;28;20035;-75
2022/10/11 09:00:43;;;;;;;14.82;8.05;;;;;;;;;;5014269;28;20020;-75
2022/10/11 09:03:11;;;;;;;14.68;8.30;;;;;;;;;;5013958;28;20031;-75
2022/10/11 09:05:55;;;;;;;17.33;6.78;;;;;;;;;;5010672;28;20028;-75
2022/10/11 09:08:21;;;;;;;9.90;6.07;;;;;;;;;;5015354;28;20840;-75
2022/10/11 09:11:05;;;;;;;10.75;5.32;;;;;;;;;;5014159;28;20110;-75
2022/10/11 09:13:32;;;;;;;10.52;5.30;;;;;;;;;;5001874;28;20024;-74
2022/10/11 09:16:01;;;;;;;17.63;6.15;;;;;;;;;;5045573;28;20036;-74
2022/10/11 09:18:35;;;;;;;14.43;6.07;;;;;;;;;;5014895;28;20024;-73
2022/10/11 09:21:20;;;;;;;14.05;6.65;;;;;;;;;;5015304;28;20024;-72
2022/10/11 09:23:54;;;;;;;10.55;5.05;;;;;;;;;;5012891;28;20028;-73
2022/10/11 09:26:34;;;;;;;7.65;4.15;;;;;;;;;;5024533;28;20031;-73
2022/10/11 09:29:05;;;;;;;23.05;5.30;;;;;;;;;;5031597;28;20090;-74
2022/10/11 09:31:31;;;;;;;16.02;5.50;;;;;;;;;;5025576;28;20024;-71
2022/10/11 09:33:57;;;;;;;14.07;5.43;;;;;;;;;;5023066;28;20319;-73
2022/10/11 09:36:29;;;;;;;11.18;5.30;;;;;;;;;;5012024;28;20866;-74
2022/10/11 09:39:00;;;;;;;19.05;5.53;;;;;;;;;;5019652;28;20034;-76
2022/10/11 09:41:29;;;;;;;13.15;4.78;;;;;;;;;;5016704;28;20878;-73
2022/10/11 09:43:55;;;;;;;15.05;4.72;;;;;;;;;;5029109;28;21421;-77
2022/10/11 09:46:31;;;;;;;10.55;4.38;;;;;;;;;;5017214;28;20027;-75
2022/10/11 09:48:56;;;;;;;17.17;4.90;;;;;;;;;;5013952;28;20035;-75
2022/10/11 09:51:22;;;;;;;11.20;4.28;;;;;;;;;;5020904;28;20904;-74
2022/10/11 09:53:50;;;;;;;13.40;4.70;;;;;;;;;;5031266;28;20027;-74
2022/10/11 09:56:16;;;;;;;12.15;4.03;;;;;;;;;;5013292;28;20020;-73
2022/10/11 09:58:41;;;;;;;12.40;4.90;;;;;;;;;;5018092;28;20059;-74
2022/10/11 10:01:07;;;;;;;12.40;3.60;;;;;;;;;;5016797;28;20024;-74
2022/10/11 10:03:34;;;;;;;9.50;4.93;;;;;;;;;;5031151;28;20020;-74
2022/10/11 10:06:04;;;;;;;13.55;4.47;;;;;;;;;;5032538;28;20882;-74
2022/10/11 10:08:29;;;;;;;17.30;4.70;;;;;;;;;;5049557;28;21117;-74
2022/10/11 10:10:55;;;;;;;10.95;4.10;;;;;;;;;;5007828;28;20008;-73
2022/10/11 10:13:21;;;;;;;8.83;4.40;;;;;;;;;;5017175;28;20043;-74
2022/10/11 10:15:48;;;;;;;24.13;4.90;;;;;;;;;;5045563;28;20028;-74
2022/10/11 10:18:22;;;;;;;8.57;4.53;;;;;;;;;;5012270;28;20048;-74
2022/10/11 10:20:47;;;;;;;;;;;;;;;;;;5047032;28;20131;-74
2022/10/11 10:23:21;;;;;;;7.47;3.88;;;;;;;;;;5046317;28;19904;-73
2022/10/11 10:25:50;;;;;;;12.18;4.07;;;;;;;;;;5045264;28;20055;-74
2022/10/11 10:28:23;;;;;;;9.10;3.50;;;;;;;;;;5031736;28;20036;-74
2022/10/11 10:30:56;;;;;;;10.65;3.83;;;;;;;;;;5005386;28;20012;-75
2022/10/11 10:33:22;;;;;;;17.85;4.05;;;;;;;;;;5033330;28;20017;-74
2022/10/11 10:35:50;;;;;;;14.03;4.63;;;;;;;;;;4969001;28;1785319;-74
2022/10/11 10:38:18;;;;;;;11.20;4.07;;;;;;;;;;5017219;28;20021;-74
2022/10/11 10:40:51;;;;;;;13.20;4.07;;;;;;;;;;5043104;28;20044;-73
2022/10/11 10:43:27;;;;;;;10.85;3.67;;;;;;;;;;5048951;28;20024;-74
2022/10/11 10:46:11;;;;;;;11.35;4.53;;;;;;;;;;5032336;28;20222;-74
2022/10/11 10:48:56;;;;;;;10.67;4.53;;;;;;;;;;5017198;28;20874;-73
2022/10/11 10:51:35;;;;;;;9.63;3.75;;;;;;;;;;5011554;28;20032;-74
2022/10/11 10:54:10;;;;;;;12.68;4.15;;;;;;;;;;5024190;28;20012;-73
2022/10/11 10:56:38;;;;;;;;;;;;;;;;;;5030252;28;20025;-74
2022/10/11 10:59:17;;;;;;;11.80;4.10;;;;;;;;;;5046219;28;20121;-73
2022/10/11 11:01:50;;;;;;;17.05;3.65;;;;;;;;;;5029263;28;20021;-73
2022/10/11 11:04:23;;;;;;;13.10;3.50;;;;;;;;;;5031096;28;20023;-73
2022/10/11 11:06:51;;;;;;;6.97;4.05;;;;;;;;;;5028396;28;20013;-73
2022/10/11 11:09:16;;;;;;;12.68;4.95;;;;;;;;;;5015887;28;20027;-73
2022/10/11 11:12:00;;;;;;;8.87;4.67;;;;;;;;;;5013542;28;20139;-73
2022/10/11 11:14:51;;;;;;;13.35;5.25;;;;;;;;;;5018458;28;20477;-73
2022/10/11 11:17:25;;;;;;;11.73;3.80;;;;;;;;;;5005451;28;20778;-73
2022/10/11 11:20:09;;;;;;;13.05;3.63;;;;;;;;;;5037625;28;20012;-73
2022/10/11 11:22:53;;;;;;;6.13;3.00;;;;;;;;;;5029894;28;20072;-73
2022/10/11 11:25:30;;;;;;;8.52;3.70;;;;;;;;;;5029292;28;20024;-74
2022/10/11 11:27:58;;;;;;;11.02;4.07;;;;;;;;;;5028872;28;20025;-73
2022/10/11 11:30:34;;;;;;;8.50;3.42;;;;;;;;;;5011576;28;20021;-73
2022/10/11 11:33:05;;;;;;;8.20;2.92;;;;;;;;;;5043069;28;20078;-73
2022/10/11 11:35:35;;;;;;;8.82;2.78;;;;;;;;;;5020060;28;20017;-73
2022/10/11 11:38:03;;;;;;;8.38;3.22;;;;;;;;;;5030125;28;20028;-73
2022/10/11 11:40:33;;;;;;;8.95;3.53;;;;;;;;;;5031642;28;20020;-73
2022/10/11 11:43:01;;;;;;;7.40;2.95;;;;;;;;;;5028850;28;20020;-71
2022/10/11 11:45:28;;;;;;;9.77;3.58;;;;;;;;;;5012874;28;20110;-73
2022/10/11 11:48:09;;;;;;;9.50;2.70;;;;;;;;;;5029438;28;20031;-73
2022/10/11 11:50:36;;;;;;;6.10;2.78;;;;;;;;;;5031903;28;20028;-74
2022/10/11 11:53:06;;;;;;;8.10;3.22;;;;;;;;;;5013107;28;20086;-73
2022/10/11 11:55:41;;;;;;;20.13;3.15;;;;;;;;;;5029441;28;20027;-73
2022/10/11 11:58:25;;;;;;;9.25;3.00;;;;;;;;;;5029811;28;20124;-74
2022/10/11 12:00:57;;;;;;;12.32;2.65;;;;;;;;;;5029010;28;20020;-74
2022/10/11 12:03:24;;;;;;;9.70;2.95;;;;;;;;;;5009539;28;20028;-74
2022/10/11 12:06:08;;;;;;;10.38;3.10;;;;;;;;;;5012367;28;20016;-74
2022/10/11 12:08:34;;;;;;;7.63;2.92;;;;;;;;;;5044688;28;20028;-75
2022/10/11 12:11:01;;;;;;;9.95;3.65;;;;;;;;;;5000388;28;20017;-75
2022/10/11 12:13:36;;;;;;;7.20;3.25;;;;;;;;;;5038059;28;20135;-75
2022/10/11 12:16:11;;;;;;;9.25;3.47;;;;;;;;;;5030262;28;20040;-75
2022/10/11 12:18:49;;;;;;;7.72;3.38;;;;;;;;;;5004135;28;20242;-74
2022/10/11 12:21:33;;;;;;;11.23;3.88;;;;;;;;;;5030660;28;20047;-73
2022/10/11 12:24:18;;;;;;;8.18;4.10;;;;;;;;;;5017817;28;20031;-74
2022/10/11 12:26:45;;;;;;;19.33;4.97;;;;;;;;;;5013483;28;20102;-74
2022/10/11 12:29:20;;;;;;;14.70;4.45;;;;;;;;;;5025017;28;20147;-74
2022/10/11 12:32:05;;;;;;;8.70;4.07;;;;;;;;;;5029883;28;20023;-74
2022/10/11 12:34:32;;;;;;;7.88;4.05;;;;;;;;;;4978782;28;20033;-75
2022/10/11 12:36:57;;;;;;;11.63;4.45;;;;;;;;;;5009977;28;20080;-73
2022/10/11 12:39:22;;;;;;;13.52;4.65;;;;;;;;;;5010817;28;20017;-75
2022/10/11 12:41:52;;;;;;;11.43;4.70;;;;;;;;;;5026501;28;20013;-74
2022/10/11 12:44:17;;;;;;;6.68;3.67;;;;;;;;;;5032473;28;20024;-73
2022/10/11 12:46:56;;;;;;;13.50;4.43;;;;;;;;;;5038280;28;20017;-75
2022/10/11 12:49:28;;;;;;;9.27;3.63;;;;;;;;;;5009387;28;20036;-74
2022/10/11 12:52:12;;;;;;;8.45;3.55;;;;;;;;;;5012279;28;20012;-72
2022/10/11 12:55:03;;;;;;;11.77;3.83;;;;;;;;;;5026954;28;20014;-73
2022/10/11 12:57:48;;;;;;;7.88;3.30;;;;;;;;;;5013406;28;20277;-69
2022/10/11 13:00:17;;;;;;;10.07;2.83;;;;;;;;;;5045296;28;20767;-68
2022/10/11 13:02:42;;;;;;;11.13;3.50;;;;;;;;;;5037384;28;20016;-71
2022/10/11 13:05:10;;;;;;;8.00;3.28;;;;;;;;;;5044435;28;20082;-74
2022/10/11 13:07:39;;;;;;;10.15;3.25;;;;;;;;;;5013451;28;20029;-74
2022/10/11 13:10:05;;;;;;;8.38;3.40;;;;;;;;;;5045453;28;20883;-74
2022/10/11 13:12:39;;;;;;;13.00;3.80;;;;;;;;;;5033433;28;20016;-73
2022/10/11 13:15:08;;;;;;;9.45;3.53;;;;;;;;;;5014502;28;20110;-75
2022/10/11 13:17:35;;;;;;;7.63;2.50;;;;;;;;;;5010905;28;20012;-74
2022/10/11 13:20:20;;;;;;;6.35;3.33;;;;;;;;;;5028483;28;20024;-73
2022/10/11 13:22:51;;;;;;;5.80;2.53;;;;;;;;;;5034288;28;20028;-73
2022/10/11 13:25:18;;;;;;;12.07;3.33;;;;;;;;;;5027764;28;20029;-74
2022/10/11 13:27:43;;;;;;;11.00;3.42;;;;;;;;;;5037807;28;20033;-75
2022/10/11 13:30:14;;;;;;;7.43;3.38;;;;;;;;;;5059447;28;20020;-73
2022/10/11 13:32:41;;;;;;;13.40;3.63;;;;;;;;;;5025036;28;20213;-73
2022/10/11 13:35:13;;;;;;;6.85;2.95;;;;;;;;;;5018332;28;20194;-72
2022/10/11 13:37:44;;;;;;;7.75;3.50;;;;;;;;;;5033561;28;20024;-73
2022/10/11 13:40:13;;;;;;;8.65;3.10;;;;;;;;;;5015840;28;20052;-73
2022/10/11 13:42:39;;;;;;;6.85;2.97;;;;;;;;;;5016083;28;20912;-74
2022/10/11 13:45:08;;;;;;;4.93;2.83;;;;;;;;;;5018779;28;20123;-73
2022/10/11 13:47:33;;;;;;;10.38;3.38;;;;;;;;;;5030424;28;20090;-72
2022/10/11 13:50:02;;;;;;;10.25;3.42;;;;;;;;;;5016525;28;20043;-73
2022/10/11 13:52:27;;;;;;;8.23;3.63;;;;;;;;;;5017248;28;20028;-74
2022/10/11 13:55:02;;;;;;;9.80;4.05;;;;;;;;;;5015381;28;20774;-74
2022/10/11 13:57:33;;;;;;;8.57;3.22;;;;;;;;;;5024127;28;20095;-72
2022/10/11 14:00:01;;;;;;;18.80;3.67;;;;;;;;;;5015666;28;20143;-73
2022/10/11 14:02:28;;;;;;;14.10;4.35;;;;;;;;;;5017797;28;20009;-73
2022/10/11 14:04:53;;;;;;;8.77;3.70;;;;;;;;;;5013231;28;20114;-73
2022/10/11 14:07:21;;;;;;;11.23;3.57;;;;;;;;;;5032230;28;20538;-73
2022/10/11 14:09:47;;;;;;;11.35;4.13;;;;;;;;;;5012447;28;20273;-73
2022/10/11 14:12:27;;;;;;;7.47;3.67;;;;;;;;;;5031137;28;20023;-73
2022/10/11 14:14:52;;;;;;;12.27;4.30;;;;;;;;;;5033510;28;20082;-70
2022/10/11 14:17:31;;;;;;;10.88;3.95;;;;;;;;;;5030911;28;20116;-72
2022/10/11 14:20:12;;;;;;;9.18;3.88;;;;;;;;;;5013643;28;20134;-72
2022/10/11 14:22:37;;;;;;;7.90;3.75;;;;;;;;;;5009136;28;20020;-73
2022/10/11 14:25:03;;;;;;;9.30;3.60;;;;;;;;;;5013039;28;20047;-74
2022/10/11 14:27:28;;;;;;;7.63;3.88;;;;;;;;;;5006014;28;20867;-74
2022/10/11 14:29:53;;;;;;;11.20;3.60;;;;;;;;;;5015770;28;20850;-75
2022/10/11 14:32:22;;;;;;;10.38;2.85;;;;;;;;;;5017895;28;20020;-72
2022/10/11 14:34:48;;;;;;;7.85;3.33;;;;;;;;;;5014711;28;20024;-73
2022/10/11 14:37:17;;;;;;;11.45;3.60;;;;;;;;;;5016353;28;20133;-73